sensor_id;sensor_type;location;lat;lon;timestamp;pressure;altitude;pressure_sealevel;temperature;humidity
61742;BME280;47650;49.848;9.620;2023-04-06T00:01:22;100025.09;;;0.05;62.14
61742;BME280;47650;49.848;9.620;2023-04-06T00:03:47;100043.16;;;0.10;61.61
61742;BME280;47650;49.848;9.620;2023-04-06T00:06:14;99895.75;;;-0.75;61.75
61742;BME280;47650;49.848;9.620;2023-04-06T00:08:39;100052.03;;;0.06;60.99
61742;BME280;47650;49.848;9.620;2023-04-06T00:11:06;100028.78;;;0.01;61.61
61742;BME280;47650;49.848;9.620;2023-04-06T00:13:31;100028.25;;;-0.07;61.44
61742;BME280;47650;49.848;9.620;2023-04-06T00:15:56;99993.56;;;-0.28;61.54
61742;BME280;47650;49.848;9.620;2023-04-06T00:18:22;99977.69;;;-0.43;61.39
61742;BME280;47650;49.848;9.620;2023-04-06T00:20:49;100031.28;;;-0.16;61.09
61742;BME280;47650;49.848;9.620;2023-04-06T00:23:17;99996.56;;;-0.38;61.47
61742;BME280;47650;49.848;9.620;2023-04-06T00:25:44;99935.44;;;-0.90;60.93
61742;BME280;47650;49.848;9.620;2023-04-06T00:28:09;99791.16;;;-1.65;61.42
61742;BME280;47650;49.848;9.620;2023-04-06T00:30:36;99977.09;;;-0.49;62.33
61742;BME280;47650;49.848;9.620;2023-04-06T00:33:04;100013.50;;;-0.27;62.28
61742;BME280;47650;49.848;9.620;2023-04-06T00:35:30;99988.94;;;-0.42;61.52
61742;BME280;47650;49.848;9.620;2023-04-06T00:38:02;99982.31;;;-0.49;61.38
61742;BME280;47650;49.848;9.620;2023-04-06T00:40:28;99891.34;;;-1.14;61.68
61742;BME280;47650;49.848;9.620;2023-04-06T00:42:54;100004.56;;;-0.42;63.49
61742;BME280;47650;49.848;9.620;2023-04-06T00:45:20;99935.19;;;-0.84;63.08
61742;BME280;47650;49.848;9.620;2023-04-06T00:47:45;99923.34;;;-0.91;63.58
61742;BME280;47650;49.848;9.620;2023-04-06T00:50:23;99981.59;;;-0.53;62.84
61742;BME280;47650;49.848;9.620;2023-04-06T00:52:51;100004.69;;;-0.45;62.52
61742;BME280;47650;49.848;9.620;2023-04-06T00:55:18;99958.28;;;-0.77;63.85
61742;BME280;47650;49.848;9.620;2023-04-06T00:57:43;99994.56;;;-0.51;64.28
61742;BME280;47650;49.848;9.620;2023-04-06T01:00:10;99963.97;;;-0.67;63.47
61742;BME280;47650;49.848;9.620;2023-04-06T01:02:37;99942.41;;;-0.91;62.86
61742;BME280;47650;49.848;9.620;2023-04-06T01:05:02;99992.97;;;-0.55;63.07
61742;BME280;47650;49.848;9.620;2023-04-06T01:07:28;99926.84;;;-0.92;63.81
61742;BME280;47650;49.848;9.620;2023-04-06T01:09:56;99853.13;;;-1.34;63.52
61742;BME280;47650;49.848;9.620;2023-04-06T01:12:33;99988.34;;;-0.49;63.19
61742;BME280;47650;49.848;9.620;2023-04-06T01:15:05;99976.66;;;-0.59;63.19
61742;BME280;47650;49.848;9.620;2023-04-06T01:17:31;99993.78;;;-0.53;63.06
61742;BME280;47650;49.848;9.620;2023-04-06T01:19:58;99989.72;;;-0.61;62.91
61742;BME280;47650;49.848;9.620;2023-04-06T01:22:25;99950.94;;;-0.87;63.14
61742;BME280;47650;49.848;9.620;2023-04-06T01:24:58;99984.59;;;-0.62;63.15
61742;BME280;47650;49.848;9.620;2023-04-06T01:27:23;99838.66;;;-1.62;62.35
61742;BME280;47650;49.848;9.620;2023-04-06T01:29:50;99952.88;;;-0.92;62.52
61742;BME280;47650;49.848;9.620;2023-04-06T01:32:17;99789.69;;;-1.93;62.84
61742;BME280;47650;49.848;9.620;2023-04-06T01:34:42;99981.94;;;-0.81;62.70
61742;BME280;47650;49.848;9.620;2023-04-06T01:37:07;99976.84;;;-0.84;63.59
61742;BME280;47650;49.848;9.620;2023-04-06T01:39:34;99881.03;;;-1.38;63.19
61742;BME280;47650;49.848;9.620;2023-04-06T01:42:07;99942.00;;;-1.02;64.29
61742;BME280;47650;49.848;9.620;2023-04-06T01:44:32;99947.03;;;-0.98;64.14
61742;BME280;47650;49.848;9.620;2023-04-06T01:46:58;99936.22;;;-1.09;64.08
61742;BME280;47650;49.848;9.620;2023-04-06T01:49:24;99969.88;;;-0.84;63.66
61742;BME280;47650;49.848;9.620;2023-04-06T01:51:50;99973.59;;;-0.89;63.76
61742;BME280;47650;49.848;9.620;2023-04-06T01:54:17;99907.59;;;-1.29;63.68
61742;BME280;47650;49.848;9.620;2023-04-06T01:56:42;99922.19;;;-1.27;64.65
61742;BME280;47650;49.848;9.620;2023-04-06T01:59:08;99967.06;;;-1.00;64.25
61742;BME280;47650;49.848;9.620;2023-04-06T02:01:34;99969.72;;;-1.01;64.58
61742;BME280;47650;49.848;9.620;2023-04-06T02:03:59;99840.72;;;-1.92;64.11
61742;BME280;47650;49.848;9.620;2023-04-06T02:06:25;99868.59;;;-1.74;63.80
61742;BME280;47650;49.848;9.620;2023-04-06T02:08:52;99903.34;;;-1.54;63.26
61742;BME280;47650;49.848;9.620;2023-04-06T02:11:20;99924.47;;;-1.40;63.57
61742;BME280;47650;49.848;9.620;2023-04-06T02:13:47;99978.09;;;-1.15;64.06
61742;BME280;47650;49.848;9.620;2023-04-06T02:16:13;99929.97;;;-1.47;64.50
61742;BME280;47650;49.848;9.620;2023-04-06T02:18:39;99981.88;;;-1.22;65.57
61742;BME280;47650;49.848;9.620;2023-04-06T02:21:06;99946.16;;;-1.41;65.71
61742;BME280;47650;49.848;9.620;2023-04-06T02:23:33;99858.03;;;-1.91;64.86
61742;BME280;47650;49.848;9.620;2023-04-06T02:25:59;99974.19;;;-1.25;65.20
61742;BME280;47650;49.848;9.620;2023-04-06T02:28:25;99944.66;;;-1.46;65.68
61742;BME280;47650;49.848;9.620;2023-04-06T02:30:53;99864.94;;;-1.90;65.74
61742;BME280;47650;49.848;9.620;2023-04-06T02:33:18;99973.28;;;-1.24;65.46
61742;BME280;47650;49.848;9.620;2023-04-06T02:35:44;99897.47;;;-1.80;64.78
61742;BME280;47650;49.848;9.620;2023-04-06T02:38:21;99970.25;;;-1.36;64.87
61742;BME280;47650;49.848;9.620;2023-04-06T02:40:48;99842.69;;;-2.19;65.19
61742;BME280;47650;49.848;9.620;2023-04-06T02:43:13;99863.72;;;-2.03;64.78
61742;BME280;47650;49.848;9.620;2023-04-06T02:45:41;99965.41;;;-1.45;65.02
61742;BME280;47650;49.848;9.620;2023-04-06T02:48:08;99963.72;;;-1.46;64.43
61742;BME280;47650;49.848;9.620;2023-04-06T02:50:34;99959.50;;;-1.48;64.40
61742;BME280;47650;49.848;9.620;2023-04-06T02:53:01;99852.09;;;-2.17;63.98
61742;BME280;47650;49.848;9.620;2023-04-06T02:55:26;99917.22;;;-1.76;64.34
61742;BME280;47650;49.848;9.620;2023-04-06T02:57:52;99808.78;;;-2.38;65.09
61742;BME280;47650;49.848;9.620;2023-04-06T03:00:18;99940.84;;;-1.60;65.06
61742;BME280;47650;49.848;9.620;2023-04-06T03:02:48;99962.03;;;-1.47;65.34
61742;BME280;47650;49.848;9.620;2023-04-06T03:05:15;99767.50;;;-2.68;65.22
61742;BME280;47650;49.848;9.620;2023-04-06T03:07:50;99958.78;;;-1.52;65.40
61742;BME280;47650;49.848;9.620;2023-04-06T03:10:22;99919.81;;;-1.76;65.44
61742;BME280;47650;49.848;9.620;2023-04-06T03:12:47;99935.75;;;-1.63;66.26
61742;BME280;47650;49.848;9.620;2023-04-06T03:15:13;99880.81;;;-1.98;66.72
61742;BME280;47650;49.848;9.620;2023-04-06T03:17:44;99950.75;;;-1.47;65.64
61742;BME280;47650;49.848;9.620;2023-04-06T03:20:11;99962.16;;;-1.50;64.80
61742;BME280;47650;49.848;9.620;2023-04-06T03:22:37;99967.56;;;-1.56;64.62
61742;BME280;47650;49.848;9.620;2023-04-06T03:25:05;99968.78;;;-1.65;65.96
61742;BME280;47650;49.848;9.620;2023-04-06T03:27:32;99977.38;;;-1.63;66.79
61742;BME280;47650;49.848;9.620;2023-04-06T03:30:06;99977.09;;;-1.55;66.37
61742;BME280;47650;49.848;9.620;2023-04-06T03:34:59;99981.72;;;-1.63;64.35
61742;BME280;47650;49.848;9.620;2023-04-06T03:37:24;99981.91;;;-1.68;64.92
61742;BME280;47650;49.848;9.620;2023-04-06T03:39:50;99982.94;;;-1.72;64.40
61742;BME280;47650;49.848;9.620;2023-04-06T03:42:15;99814.53;;;-2.77;64.65
61742;BME280;47650;49.848;9.620;2023-04-06T03:44:41;99961.03;;;-1.88;64.80
61742;BME280;47650;49.848;9.620;2023-04-06T03:47:06;99939.22;;;-2.08;65.29
61742;BME280;47650;49.848;9.620;2023-04-06T03:49:33;99941.72;;;-2.05;65.52
61742;BME280;47650;49.848;9.620;2023-04-06T03:52:00;99969.66;;;-1.88;65.47
61742;BME280;47650;49.848;9.620;2023-04-06T03:54:25;99880.69;;;-2.40;65.33
61742;BME280;47650;49.848;9.620;2023-04-06T03:56:57;99970.44;;;-1.86;65.23
61742;BME280;47650;49.848;9.620;2023-04-06T03:59:24;99972.38;;;-1.91;65.38
61742;BME280;47650;49.848;9.620;2023-04-06T04:01:52;99979.03;;;-1.84;65.79
61742;BME280;47650;49.848;9.620;2023-04-06T04:04:20;99990.31;;;-1.83;65.85
61742;BME280;47650;49.848;9.620;2023-04-06T04:06:47;99874.81;;;-2.69;66.97
61742;BME280;47650;49.848;9.620;2023-04-06T04:09:22;100001.63;;;-1.86;67.44
61742;BME280;47650;49.848;9.620;2023-04-06T04:11:47;99945.44;;;-2.12;66.44
61742;BME280;47650;49.848;9.620;2023-04-06T04:14:13;99917.59;;;-2.32;66.25
61742;BME280;47650;49.848;9.620;2023-04-06T04:16:38;99993.16;;;-1.91;65.96
61742;BME280;47650;49.848;9.620;2023-04-06T04:19:05;99961.28;;;-2.20;65.71
61742;BME280;47650;49.848;9.620;2023-04-06T04:21:33;99995.09;;;-1.96;66.31
61742;BME280;47650;49.848;9.620;2023-04-06T04:24:00;99935.91;;;-2.35;66.17
61742;BME280;47650;49.848;9.620;2023-04-06T04:26:28;100000.53;;;-2.02;66.64
61742;BME280;47650;49.848;9.620;2023-04-06T04:28:56;99984.38;;;-2.11;66.21
61742;BME280;47650;49.848;9.620;2023-04-06T04:31:24;99958.88;;;-2.24;65.72
61742;BME280;47650;49.848;9.620;2023-04-06T04:33:51;99932.06;;;-2.49;65.74
61742;BME280;47650;49.848;9.620;2023-04-06T04:36:18;99973.56;;;-2.23;66.12
61742;BME280;47650;49.848;9.620;2023-04-06T04:38:50;99934.53;;;-2.46;65.94
61742;BME280;47650;49.848;9.620;2023-04-06T04:41:17;100000.53;;;-2.02;65.99
61742;BME280;47650;49.848;9.620;2023-04-06T04:43:42;100006.63;;;-2.03;65.95
61742;BME280;47650;49.848;9.620;2023-04-06T04:46:07;99993.88;;;-2.11;66.15
61742;BME280;47650;49.848;9.620;2023-04-06T04:48:36;100012.38;;;-1.95;66.46
61742;BME280;47650;49.848;9.620;2023-04-06T04:51:01;100010.56;;;-1.93;66.32
61742;BME280;47650;49.848;9.620;2023-04-06T04:53:28;99901.34;;;-2.61;65.83
61742;BME280;47650;49.848;9.620;2023-04-06T04:55:56;99936.13;;;-2.41;65.71
61742;BME280;47650;49.848;9.620;2023-04-06T04:58:30;100011.59;;;-1.97;65.83
61742;BME280;47650;49.848;9.620;2023-04-06T05:00:55;99884.28;;;-2.68;65.85
61742;BME280;47650;49.848;9.620;2023-04-06T05:03:23;99821.44;;;-3.02;65.46
61742;BME280;47650;49.848;9.620;2023-04-06T05:05:56;99979.75;;;-2.02;65.79
61742;BME280;47650;49.848;9.620;2023-04-06T05:08:23;99905.75;;;-2.39;65.39
61742;BME280;47650;49.848;9.620;2023-04-06T05:10:54;100003.00;;;-1.76;65.75
61742;BME280;47650;49.848;9.620;2023-04-06T05:13:20;99809.91;;;-2.93;65.73
61742;BME280;47650;49.848;9.620;2023-04-06T05:15:47;99965.19;;;-2.08;65.67
61742;BME280;47650;49.848;9.620;2023-04-06T05:18:15;99904.28;;;-2.23;65.74
61742;BME280;47650;49.848;9.620;2023-04-06T05:20:44;100023.53;;;-1.46;65.42
61742;BME280;47650;49.848;9.620;2023-04-06T05:23:09;99983.28;;;-1.59;65.05
61742;BME280;47650;49.848;9.620;2023-04-06T05:25:35;100004.44;;;-1.45;65.15
61742;BME280;47650;49.848;9.620;2023-04-06T05:28:04;99957.09;;;-1.77;64.40
61742;BME280;47650;49.848;9.620;2023-04-06T05:30:29;99955.16;;;-1.72;64.46
61742;BME280;47650;49.848;9.620;2023-04-06T05:32:56;99903.09;;;-1.92;64.40
61742;BME280;47650;49.848;9.620;2023-04-06T05:35:21;99985.84;;;-1.36;64.35
61742;BME280;47650;49.848;9.620;2023-04-06T05:37:47;100015.97;;;-1.08;64.63
61742;BME280;47650;49.848;9.620;2023-04-06T05:40:12;100031.69;;;-0.89;64.45
61742;BME280;47650;49.848;9.620;2023-04-06T05:42:43;99983.84;;;-1.07;64.72
61742;BME280;47650;49.848;9.620;2023-04-06T05:45:10;99926.69;;;-1.30;64.39
61742;BME280;47650;49.848;9.620;2023-04-06T05:47:36;99932.25;;;-1.18;64.38
61742;BME280;47650;49.848;9.620;2023-04-06T05:50:03;100031.03;;;-0.51;63.57
61742;BME280;47650;49.848;9.620;2023-04-06T05:52:29;100004.50;;;-0.61;63.76
61742;BME280;47650;49.848;9.620;2023-04-06T05:54:55;99990.38;;;-0.55;63.48
61742;BME280;47650;49.848;9.620;2023-04-06T05:57:20;99996.50;;;-0.36;64.00
61742;BME280;47650;49.848;9.620;2023-04-06T05:59:46;100023.84;;;-0.05;63.87
61742;BME280;47650;49.848;9.620;2023-04-06T06:02:14;100033.56;;;0.10;63.24
61742;BME280;47650;49.848;9.620;2023-04-06T06:04:40;100011.03;;;0.09;62.68
61742;BME280;47650;49.848;9.620;2023-04-06T06:07:05;99979.09;;;0.04;62.30
61742;BME280;47650;49.848;9.620;2023-04-06T06:09:31;100031.78;;;0.50;61.63
61742;BME280;47650;49.848;9.620;2023-04-06T06:11:56;99983.69;;;0.37;61.63
61742;BME280;47650;49.848;9.620;2023-04-06T06:14:22;100027.06;;;0.76;62.26
61742;BME280;47650;49.848;9.620;2023-04-06T06:16:49;99993.31;;;0.73;61.56
61742;BME280;47650;49.848;9.620;2023-04-06T06:19:15;99955.22;;;0.69;60.85
61742;BME280;47650;49.848;9.620;2023-04-06T06:21:40;99990.50;;;0.95;60.78
61742;BME280;47650;49.848;9.620;2023-04-06T06:24:07;100021.06;;;1.10;61.26
61742;BME280;47650;49.848;9.620;2023-04-06T06:26:33;99957.31;;;0.80;61.89
61742;BME280;47650;49.848;9.620;2023-04-06T06:29:11;100019.63;;;1.40;62.48
61742;BME280;47650;49.848;9.620;2023-04-06T06:31:41;100020.78;;;1.52;61.28
61742;BME280;47650;49.848;9.620;2023-04-06T06:34:06;99927.94;;;1.11;61.33
61742;BME280;47650;49.848;9.620;2023-04-06T06:36:31;100010.44;;;1.83;60.54
61742;BME280;47650;49.848;9.620;2023-04-06T06:41:25;100024.44;;;2.16;59.95
61742;BME280;47650;49.848;9.620;2023-04-06T06:43:51;99983.00;;;1.92;60.09
61742;BME280;47650;49.848;9.620;2023-04-06T06:46:16;99882.63;;;1.45;59.90
61742;BME280;47650;49.848;9.620;2023-04-06T06:48:42;100003.38;;;1.85;60.16
61742;BME280;47650;49.848;9.620;2023-04-06T06:51:10;100026.47;;;2.11;59.63
61742;BME280;47650;49.848;9.620;2023-04-06T06:53:37;100028.41;;;2.07;60.12
61742;BME280;47650;49.848;9.620;2023-04-06T06:56:03;99983.34;;;2.02;60.19
61742;BME280;47650;49.848;9.620;2023-04-06T06:58:37;99976.56;;;1.82;60.69
61742;BME280;47650;49.848;9.620;2023-04-06T07:01:11;99987.38;;;2.07;59.59
61742;BME280;47650;49.848;9.620;2023-04-06T07:03:37;99851.91;;;1.66;59.08
61742;BME280;47650;49.848;9.620;2023-04-06T07:06:11;99984.69;;;2.89;58.14
61742;BME280;47650;49.848;9.620;2023-04-06T07:08:39;100011.13;;;3.30;57.43
61742;BME280;47650;49.848;9.620;2023-04-06T07:11:11;99986.28;;;3.22;56.63
61742;BME280;47650;49.848;9.620;2023-04-06T07:13:36;100003.56;;;3.26;56.14
61742;BME280;47650;49.848;9.620;2023-04-06T07:16:03;99978.97;;;3.12;56.71
61742;BME280;47650;49.848;9.620;2023-04-06T07:18:28;100001.69;;;3.72;55.58
61742;BME280;47650;49.848;9.620;2023-04-06T07:20:56;99847.19;;;2.81;55.04
61742;BME280;47650;49.848;9.620;2023-04-06T07:23:23;100015.19;;;4.09;54.49
61742;BME280;47650;49.848;9.620;2023-04-06T07:25:48;99979.00;;;3.86;53.48
61742;BME280;47650;49.848;9.620;2023-04-06T07:28:17;100012.47;;;4.11;53.41
61742;BME280;47650;49.848;9.620;2023-04-06T07:30:46;100002.13;;;4.37;53.38
61742;BME280;47650;49.848;9.620;2023-04-06T07:33:17;100012.19;;;4.71;52.28
61742;BME280;47650;49.848;9.620;2023-04-06T07:35:43;100010.69;;;4.95;52.05
61742;BME280;47650;49.848;9.620;2023-04-06T07:38:14;100010.16;;;5.17;51.29
61742;BME280;47650;49.848;9.620;2023-04-06T07:40:42;99981.91;;;5.33;51.29
61742;BME280;47650;49.848;9.620;2023-04-06T07:43:09;100014.34;;;5.72;50.42
61742;BME280;47650;49.848;9.620;2023-04-06T07:45:36;99847.63;;;4.58;48.96
61742;BME280;47650;49.848;9.620;2023-04-06T07:48:04;99997.09;;;5.94;50.00
61742;BME280;47650;49.848;9.620;2023-04-06T07:50:29;99940.25;;;5.27;49.53
61742;BME280;47650;49.848;9.620;2023-04-06T07:52:56;99965.84;;;5.51;50.34
61742;BME280;47650;49.848;9.620;2023-04-06T07:55:23;99998.34;;;6.14;50.02
61742;BME280;47650;49.848;9.620;2023-04-06T07:57:56;99938.09;;;4.94;50.11
61742;BME280;47650;49.848;9.620;2023-04-06T08:00:27;99935.72;;;5.80;50.23
61742;BME280;47650;49.848;9.620;2023-04-06T08:02:53;99952.09;;;6.22;48.62
61742;BME280;47650;49.848;9.620;2023-04-06T08:05:20;99993.81;;;7.14;47.38
61742;BME280;47650;49.848;9.620;2023-04-06T08:07:45;99937.34;;;6.57;46.60
61742;BME280;47650;49.848;9.620;2023-04-06T08:10:10;99964.69;;;7.15;47.06
61742;BME280;47650;49.848;9.620;2023-04-06T08:12:36;99986.91;;;7.82;46.39
61742;BME280;47650;49.848;9.620;2023-04-06T08:15:03;99985.78;;;7.51;45.77
61742;BME280;47650;49.848;9.620;2023-04-06T08:17:31;99987.50;;;8.20;44.66
61742;BME280;47650;49.848;9.620;2023-04-06T08:20:01;99936.81;;;8.37;43.57
61742;BME280;47650;49.848;9.620;2023-04-06T08:22:29;99949.66;;;8.42;42.85
61742;BME280;47650;49.848;9.620;2023-04-06T08:24:56;99982.13;;;8.33;43.34
61742;BME280;47650;49.848;9.620;2023-04-06T08:27:21;99939.44;;;8.60;42.52
61742;BME280;47650;49.848;9.620;2023-04-06T08:29:49;99931.28;;;9.16;41.17
61742;BME280;47650;49.848;9.620;2023-04-06T08:32:14;99949.56;;;9.92;42.31
61742;BME280;47650;49.848;9.620;2023-04-06T08:34:41;99966.09;;;8.68;42.41
61742;BME280;47650;49.848;9.620;2023-04-06T08:37:07;99987.41;;;8.33;43.38
61742;BME280;47650;49.848;9.620;2023-04-06T08:39:32;99884.41;;;9.49;40.15
61742;BME280;47650;49.848;9.620;2023-04-06T08:42:12;99912.97;;;10.17;39.56
61742;BME280;47650;49.848;9.620;2023-04-06T08:44:42;99926.16;;;9.97;39.97
61742;BME280;47650;49.848;9.620;2023-04-06T08:47:09;99926.31;;;10.37;38.58
61742;BME280;47650;49.848;9.620;2023-04-06T08:49:37;99958.84;;;10.58;38.60
61742;BME280;47650;49.848;9.620;2023-04-06T08:52:09;99944.13;;;13.00;34.99
61742;BME280;47650;49.848;9.620;2023-04-06T08:54:42;99909.06;;;15.42;31.00
61742;BME280;47650;49.848;9.620;2023-04-06T08:57:08;99932.28;;;17.76;26.61
61742;BME280;47650;49.848;9.620;2023-04-06T08:59:37;99911.16;;;19.62;24.56
61742;BME280;47650;49.848;9.620;2023-04-06T09:02:06;99901.97;;;21.08;22.70
61742;BME280;47650;49.848;9.620;2023-04-06T09:04:36;99899.25;;;20.81;21.94
61742;BME280;47650;49.848;9.620;2023-04-06T09:07:02;99837.44;;;21.53;22.66
61742;BME280;47650;49.848;9.620;2023-04-06T09:09:27;99908.31;;;19.70;23.09
61742;BME280;47650;49.848;9.620;2023-04-06T09:11:52;99883.03;;;16.63;26.55
61742;BME280;47650;49.848;9.620;2023-04-06T09:14:39;99916.91;;;17.40;26.12
61742;BME280;47650;49.848;9.620;2023-04-06T09:17:06;99837.41;;;15.63;27.78
61742;BME280;47650;49.848;9.620;2023-04-06T09:19:33;99899.94;;;18.44;25.29
61742;BME280;47650;49.848;9.620;2023-04-06T09:22:05;99870.19;;;16.59;27.34
61742;BME280;47650;49.848;9.620;2023-04-06T09:24:48;99910.75;;;16.70;26.70
61742;BME280;47650;49.848;9.620;2023-04-06T09:27:17;99901.09;;;19.43;23.85
61742;BME280;47650;49.848;9.620;2023-04-06T09:29:44;99847.34;;;21.73;20.92
61742;BME280;47650;49.848;9.620;2023-04-06T09:32:11;99872.34;;;24.45;19.34
61742;BME280;47650;49.848;9.620;2023-04-06T09:34:41;99820.41;;;21.59;20.69
61742;BME280;47650;49.848;9.620;2023-04-06T09:37:20;99811.06;;;20.22;21.83
61742;BME280;47650;49.848;9.620;2023-04-06T09:39:46;99833.25;;;20.31;21.35
61742;BME280;47650;49.848;9.620;2023-04-06T09:42:23;99883.66;;;20.02;22.67
61742;BME280;47650;49.848;9.620;2023-04-06T09:44:56;99873.13;;;19.09;23.09
61742;BME280;47650;49.848;9.620;2023-04-06T09:47:22;99866.50;;;21.51;21.49
61742;BME280;47650;49.848;9.620;2023-04-06T09:49:50;99871.13;;;19.46;22.20
61742;BME280;47650;49.848;9.620;2023-04-06T09:52:19;99795.00;;;20.62;21.32
61742;BME280;47650;49.848;9.620;2023-04-06T09:54:49;99843.22;;;24.83;18.28
61742;BME280;47650;49.848;9.620;2023-04-06T09:59:52;99846.31;;;23.15;19.18
61742;BME280;47650;49.848;9.620;2023-04-06T10:05:05;99855.31;;;20.88;20.69
61742;BME280;47650;49.848;9.620;2023-04-06T10:07:31;99830.56;;;25.42;16.62
61742;BME280;47650;49.848;9.620;2023-04-06T10:09:58;99785.50;;;24.40;17.46
61742;BME280;47650;49.848;9.620;2023-04-06T10:12:25;99827.19;;;27.47;15.92
61742;BME280;47650;49.848;9.620;2023-04-06T10:14:53;99820.00;;;28.88;14.32
61742;BME280;47650;49.848;9.620;2023-04-06T10:17:19;99818.78;;;27.31;14.40
61742;BME280;47650;49.848;9.620;2023-04-06T10:20:18;99833.41;;;22.21;18.28
61742;BME280;47650;49.848;9.620;2023-04-06T10:22:59;99805.56;;;25.28;15.65
61742;BME280;47650;49.848;9.620;2023-04-06T10:25:29;99808.28;;;26.67;13.15
61742;BME280;47650;49.848;9.620;2023-04-06T10:28:01;99808.19;;;26.96;12.66
61742;BME280;47650;49.848;9.620;2023-04-06T10:30:30;99800.25;;;28.76;12.19
61742;BME280;47650;49.848;9.620;2023-04-06T10:32:56;99809.75;;;28.14;12.61
61742;BME280;47650;49.848;9.620;2023-04-06T10:35:36;99741.25;;;24.16;14.42
61742;BME280;47650;49.848;9.620;2023-04-06T10:38:03;99808.47;;;25.91;14.16
61742;BME280;47650;49.848;9.620;2023-04-06T10:40:38;99819.47;;;23.94;13.93
61742;BME280;47650;49.848;9.620;2023-04-06T10:43:09;99739.75;;;22.97;14.23
61742;BME280;47650;49.848;9.620;2023-04-06T10:45:41;99813.16;;;22.76;14.78
61742;BME280;47650;49.848;9.620;2023-04-06T10:48:17;99818.56;;;21.47;15.62
61742;BME280;47650;49.848;9.620;2023-04-06T10:50:49;99809.25;;;23.59;14.81
61742;BME280;47650;49.848;9.620;2023-04-06T10:53:34;99797.78;;;24.24;14.08
61742;BME280;47650;49.848;9.620;2023-04-06T10:56:00;99795.00;;;26.88;13.38
61742;BME280;47650;49.848;9.620;2023-04-06T10:58:26;99780.22;;;26.83;13.39
61742;BME280;47650;49.848;9.620;2023-04-06T11:00:53;99797.66;;;27.21;11.89
61742;BME280;47650;49.848;9.620;2023-04-06T11:03:19;99705.50;;;29.83;11.26
61742;BME280;47650;49.848;9.620;2023-04-06T11:05:49;99760.03;;;28.61;11.88
61742;BME280;47650;49.848;9.620;2023-04-06T11:08:27;99786.94;;;27.15;12.75
61742;BME280;47650;49.848;9.620;2023-04-06T11:11:07;99780.53;;;29.06;11.39
61742;BME280;47650;49.848;9.620;2023-04-06T11:13:46;99770.75;;;27.42;11.86
61742;BME280;47650;49.848;9.620;2023-04-06T11:16:18;99778.28;;;27.57;12.79
61742;BME280;47650;49.848;9.620;2023-04-06T11:18:51;99783.03;;;27.67;12.88
61742;BME280;47650;49.848;9.620;2023-04-06T11:21:18;99736.72;;;30.33;11.58
61742;BME280;47650;49.848;9.620;2023-04-06T11:23:50;99755.25;;;29.85;11.55
61742;BME280;47650;49.848;9.620;2023-04-06T11:26:17;99746.06;;;30.58;10.85
61742;BME280;47650;49.848;9.620;2023-04-06T11:28:44;99754.28;;;30.58;11.03
61742;BME280;47650;49.848;9.620;2023-04-06T11:31:10;99725.72;;;31.10;10.81
61742;BME280;47650;49.848;9.620;2023-04-06T11:33:37;99756.31;;;28.73;11.76
61742;BME280;47650;49.848;9.620;2023-04-06T11:36:06;99748.75;;;30.73;11.19
61742;BME280;47650;49.848;9.620;2023-04-06T11:38:32;99743.34;;;28.95;11.63
61742;BME280;47650;49.848;9.620;2023-04-06T11:40:57;99724.53;;;31.37;10.36
61742;BME280;47650;49.848;9.620;2023-04-06T11:43:30;99730.44;;;31.64;9.82
61742;BME280;47650;49.848;9.620;2023-04-06T11:46:02;99698.25;;;32.84;9.38
61742;BME280;47650;49.848;9.620;2023-04-06T11:48:30;99727.00;;;31.93;9.37
61742;BME280;47650;49.848;9.620;2023-04-06T11:50:58;99643.72;;;32.48;9.33
61742;BME280;47650;49.848;9.620;2023-04-06T11:53:24;99714.13;;;31.89;9.94
61742;BME280;47650;49.848;9.620;2023-04-06T11:55:49;99716.72;;;29.91;11.58
61742;BME280;47650;49.848;9.620;2023-04-06T11:58:15;99709.47;;;31.39;10.11
61742;BME280;47650;49.848;9.620;2023-04-06T12:00:41;99708.22;;;31.01;10.86
61742;BME280;47650;49.848;9.620;2023-04-06T12:03:10;99709.31;;;28.01;11.40
61742;BME280;47650;49.848;9.620;2023-04-06T12:05:36;99711.19;;;29.02;11.50
61742;BME280;47650;49.848;9.620;2023-04-06T12:08:01;99721.16;;;26.79;12.64
61742;BME280;47650;49.848;9.620;2023-04-06T12:10:27;99704.53;;;29.36;11.40
61742;BME280;47650;49.848;9.620;2023-04-06T12:12:53;99718.75;;;26.82;13.44
61742;BME280;47650;49.848;9.620;2023-04-06T12:15:18;99714.38;;;25.85;13.00
61742;BME280;47650;49.848;9.620;2023-04-06T12:17:43;99705.97;;;29.64;10.72
61742;BME280;47650;49.848;9.620;2023-04-06T12:20:09;99701.50;;;28.42;11.45
61742;BME280;47650;49.848;9.620;2023-04-06T12:22:36;99706.63;;;30.28;11.13
61742;BME280;47650;49.848;9.620;2023-04-06T12:25:02;99707.50;;;27.35;12.19
61742;BME280;47650;49.848;9.620;2023-04-06T12:29:56;99627.22;;;29.25;11.17
61742;BME280;47650;49.848;9.620;2023-04-06T12:32:21;99670.34;;;32.18;10.08
61742;BME280;47650;49.848;9.620;2023-04-06T12:34:46;99660.59;;;34.08;8.09
61742;BME280;47650;49.848;9.620;2023-04-06T12:37:13;99632.19;;;34.60;8.69
61742;BME280;47650;49.848;9.620;2023-04-06T12:39:41;99670.63;;;31.77;9.56
61742;BME280;47650;49.848;9.620;2023-04-06T12:42:06;99674.22;;;28.42;11.51
61742;BME280;47650;49.848;9.620;2023-04-06T12:44:31;99689.03;;;26.08;12.39
61742;BME280;47650;49.848;9.620;2023-04-06T12:46:58;99689.25;;;26.06;13.27
61742;BME280;47650;49.848;9.620;2023-04-06T12:49:24;99673.91;;;24.31;14.27
61742;BME280;47650;49.848;9.620;2023-04-06T12:51:50;99667.69;;;29.33;11.77
61742;BME280;47650;49.848;9.620;2023-04-06T12:54:17;99618.75;;;30.81;10.32
61742;BME280;47650;49.848;9.620;2023-04-06T12:56:42;99667.25;;;29.98;11.24
61742;BME280;47650;49.848;9.620;2023-04-06T12:59:08;99659.66;;;28.63;11.19
61742;BME280;47650;49.848;9.620;2023-04-06T13:01:33;99657.25;;;29.25;11.40
61742;BME280;47650;49.848;9.620;2023-04-06T13:03:59;99634.41;;;28.83;11.90
61742;BME280;47650;49.848;9.620;2023-04-06T13:06:24;99663.31;;;28.42;11.77
61742;BME280;47650;49.848;9.620;2023-04-06T13:08:52;99667.34;;;27.47;12.24
61742;BME280;47650;49.848;9.620;2023-04-06T13:11:18;99638.84;;;29.00;11.56
61742;BME280;47650;49.848;9.620;2023-04-06T13:13:45;99645.69;;;30.43;10.83
61742;BME280;47650;49.848;9.620;2023-04-06T13:16:10;99654.00;;;29.28;11.39
61742;BME280;47650;49.848;9.620;2023-04-06T13:18:36;99641.69;;;31.00;9.96